Time;durP1;ratioP1;P1;durP2;ratioP2;P2;SDS_P1;SDS_P2;PMS_P1;PMS_P2;Temp;Humidity;BMP_temperature;BMP_pressure;BME280_temperature;BME280_humidity;BME280_pressure;Samples;Min_cycle;Max_cycle;Signal;HPM_P1;HPM_P2
2022/05/29 00:01:54;;;;;;;18.08;2.63;;;;;;;;;;4945452;29;20499;-68
2022/05/29 00:04:21;;;;;;;17.77;3.08;;;;;;;;;;4936749;29;20066;-68
2022/05/29 00:06:51;;;;;;;15.50;2.47;;;;;;;;;;4949576;28;20055;-68
2022/05/29 00:09:19;;;;;;;16.13;2.63;;;;;;;;;;4947702;29;20106;-68
2022/05/29 00:11:47;;;;;;;21.67;3.03;;;;;;;;;;4944891;29;20094;-67
2022/05/29 00:14:14;;;;;;;16.33;2.53;;;;;;;;;;4919254;29;20119;-67
2022/05/29 00:16:41;;;;;;;12.10;2.33;;;;;;;;;;4925798;29;20043;-68
2022/05/29 00:19:08;;;;;;;18.92;3.38;;;;;;;;;;4928239;29;20115;-68
2022/05/29 00:21:37;;;;;;;13.18;2.90;;;;;;;;;;4928147;29;20091;-68
2022/05/29 00:24:07;;;;;;;13.63;2.58;;;;;;;;;;4928207;29;20058;-68
2022/05/29 00:26:35;;;;;;;20.77;3.17;;;;;;;;;;4927536;29;20071;-68
2022/05/29 00:29:02;;;;;;;21.95;2.92;;;;;;;;;;4928541;29;20074;-68
2022/05/29 00:31:29;;;;;;;14.25;2.78;;;;;;;;;;4929109;29;20099;-68
2022/05/29 00:33:56;;;;;;;14.93;2.70;;;;;;;;;;4928908;29;20051;-68
2022/05/29 00:36:24;;;;;;;11.32;2.40;;;;;;;;;;4928436;29;20189;-68
2022/05/29 00:38:51;;;;;;;14.50;2.75;;;;;;;;;;4929590;29;20622;-68
2022/05/29 00:41:23;;;;;;;22.52;3.50;;;;;;;;;;4925356;29;20508;-68
2022/05/29 00:44:06;;;;;;;18.38;2.60;;;;;;;;;;4924852;29;20059;-68
2022/05/29 00:46:34;;;;;;;18.45;2.60;;;;;;;;;;4927005;29;20110;-68
2022/05/29 00:49:01;;;;;;;21.00;3.00;;;;;;;;;;4926556;29;20060;-68
2022/05/29 00:51:28;;;;;;;16.60;2.50;;;;;;;;;;4926645;29;20099;-68
2022/05/29 00:53:56;;;;;;;18.50;2.78;;;;;;;;;;4923868;29;20067;-68
2022/05/29 00:56:25;;;;;;;15.20;2.78;;;;;;;;;;4927987;29;20059;-68
2022/05/29 00:58:52;;;;;;;17.45;2.50;;;;;;;;;;4924498;29;20063;-68
2022/05/29 01:01:19;;;;;;;13.10;2.40;;;;;;;;;;4929524;29;20052;-67
2022/05/29 01:03:46;;;;;;;17.13;2.70;;;;;;;;;;4927612;29;20067;-67
2022/05/29 01:06:14;;;;;;;18.70;2.88;;;;;;;;;;4927135;29;20066;-67
2022/05/29 01:08:41;;;;;;;17.40;3.17;;;;;;;;;;4921465;29;20079;-67
2022/05/29 01:11:19;;;;;;;17.38;3.15;;;;;;;;;;4927459;29;20051;-67
2022/05/29 01:13:52;;;;;;;20.70;3.55;;;;;;;;;;4934387;28;20151;-67
2022/05/29 01:16:19;;;;;;;;;;;;;;;;;;4925537;29;20514;-67
2022/05/29 01:18:49;;;;;;;15.88;2.70;;;;;;;;;;4941460;29;19989;-67
2022/05/29 01:21:30;;;;;;;17.95;2.80;;;;;;;;;;4931595;29;20063;-67
2022/05/29 01:24:07;;;;;;;15.85;2.58;;;;;;;;;;4929857;29;20054;-67
2022/05/29 01:26:58;;;;;;;12.65;2.35;;;;;;;;;;4943025;29;20050;-67
2022/05/29 01:29:32;;;;;;;13.77;2.40;;;;;;;;;;4861178;29;20108;-67
2022/05/29 01:31:59;;;;;;;;;;;;;;;;;;4931134;29;20062;-67
2022/05/29 01:34:30;;;;;;;14.25;2.40;;;;;;;;;;4945840;29;19981;-67
2022/05/29 01:37:06;;;;;;;12.18;2.60;;;;;;;;;;4928590;29;20625;-67
2022/05/29 01:39:35;;;;;;;17.42;2.63;;;;;;;;;;4945292;29;20439;-67
2022/05/29 01:42:05;;;;;;;13.68;2.65;;;;;;;;;;4947006;29;20062;-67
2022/05/29 01:44:37;;;;;;;16.65;3.00;;;;;;;;;;4947165;29;20530;-67
2022/05/29 01:47:06;;;;;;;22.02;3.15;;;;;;;;;;4929994;29;20500;-67
2022/05/29 01:49:36;;;;;;;18.13;2.42;;;;;;;;;;4945471;28;20435;-67
2022/05/29 01:52:06;;;;;;;13.73;2.30;;;;;;;;;;4929212;29;21284;-67
2022/05/29 01:54:37;;;;;;;13.27;2.70;;;;;;;;;;4931204;29;20059;-67
2022/05/29 01:57:07;;;;;;;15.70;3.25;;;;;;;;;;4945878;29;20095;-67
2022/05/29 01:59:37;;;;;;;17.95;2.28;;;;;;;;;;4925834;29;20439;-67
2022/05/29 02:02:06;;;;;;;16.70;2.42;;;;;;;;;;4947215;29;20051;-67
2022/05/29 02:04:35;;;;;;;15.50;2.83;;;;;;;;;;4942551;29;20055;-67
2022/05/29 02:09:52;;;;;;;14.25;2.80;;;;;;;;;;4927723;29;20066;-67
2022/05/29 02:12:21;;;;;;;13.68;2.17;;;;;;;;;;4927732;29;20445;-67
2022/05/29 02:14:52;;;;;;;11.13;1.92;;;;;;;;;;4947199;29;20122;-67
2022/05/29 02:17:21;;;;;;;11.52;2.33;;;;;;;;;;4931561;29;20138;-67
2022/05/29 02:19:50;;;;;;;20.13;3.03;;;;;;;;;;4949548;29;20059;-67
2022/05/29 02:22:23;;;;;;;14.48;2.60;;;;;;;;;;4949026;28;20459;-67
2022/05/29 02:24:53;;;;;;;14.73;3.00;;;;;;;;;;4948258;29;20077;-67
2022/05/29 02:27:26;;;;;;;19.70;3.47;;;;;;;;;;4950436;29;20059;-67
2022/05/29 02:29:55;;;;;;;21.38;2.97;;;;;;;;;;4946792;29;20126;-67
2022/05/29 02:32:27;;;;;;;21.00;3.20;;;;;;;;;;4950767;29;20114;-67
2022/05/29 02:35:00;;;;;;;18.00;2.95;;;;;;;;;;4950185;28;20058;-67
2022/05/29 02:37:31;;;;;;;18.05;2.92;;;;;;;;;;4947730;29;20070;-67
2022/05/29 02:40:03;;;;;;;17.75;3.47;;;;;;;;;;4948387;29;20050;-67
2022/05/29 02:42:34;;;;;;;15.27;3.00;;;;;;;;;;4933347;29;20062;-67
2022/05/29 02:45:07;;;;;;;16.13;3.15;;;;;;;;;;4928537;29;20403;-67
2022/05/29 02:47:38;;;;;;;16.55;3.00;;;;;;;;;;4951077;29;20201;-67
2022/05/29 02:50:12;;;;;;;16.85;2.88;;;;;;;;;;4945246;29;20055;-67
2022/05/29 02:52:40;;;;;;;13.40;3.00;;;;;;;;;;4932699;29;20090;-67
2022/05/29 02:55:07;;;;;;;14.40;3.25;;;;;;;;;;4927439;29;20059;-67
2022/05/29 02:57:35;;;;;;;21.95;3.88;;;;;;;;;;4932119;29;20534;-67
2022/05/29 03:00:07;;;;;;;14.48;2.60;;;;;;;;;;4950643;29;20056;-67
2022/05/29 03:02:39;;;;;;;16.77;3.05;;;;;;;;;;4948011;29;20105;-67
2022/05/29 03:05:12;;;;;;;19.63;3.15;;;;;;;;;;4948263;29;20699;-67
2022/05/29 03:07:39;;;;;;;;;;;;;;;;;;4932104;29;20464;-67
2022/05/29 03:10:12;;;;;;;12.60;2.58;;;;;;;;;;4931690;29;20017;-67
2022/05/29 03:12:44;;;;;;;13.68;2.13;;;;;;;;;;4946389;28;20055;-67
2022/05/29 03:15:22;;;;;;;12.10;2.00;;;;;;;;;;4949890;29;20078;-67
2022/05/29 03:17:54;;;;;;;13.52;1.70;;;;;;;;;;4944244;28;20426;-67
2022/05/29 03:20:27;;;;;;;13.00;1.80;;;;;;;;;;4929493;29;20050;-67
2022/05/29 03:22:58;;;;;;;11.90;1.90;;;;;;;;;;4933720;29;20047;-67
2022/05/29 03:25:29;;;;;;;11.50;1.80;;;;;;;;;;4929117;29;20354;-67
2022/05/29 03:27:58;;;;;;;10.30;1.83;;;;;;;;;;4948371;29;20454;-67
2022/05/29 03:30:29;;;;;;;11.27;1.90;;;;;;;;;;4932784;29;20399;-67
2022/05/29 03:32:58;;;;;;;14.07;2.17;;;;;;;;;;4927718;29;20514;-67
2022/05/29 03:35:27;;;;;;;14.85;2.13;;;;;;;;;;4946873;29;20180;-67
2022/05/29 03:37:54;;;;;;;12.88;2.08;;;;;;;;;;4932029;29;20055;-67
2022/05/29 03:40:22;;;;;;;17.48;2.30;;;;;;;;;;4948300;29;20050;-67
2022/05/29 03:42:49;;;;;;;14.07;2.45;;;;;;;;;;4951892;28;20058;-67
2022/05/29 03:45:16;;;;;;;13.35;2.40;;;;;;;;;;4932047;29;20114;-67
2022/05/29 03:47:44;;;;;;;18.38;2.72;;;;;;;;;;4927392;29;20062;-67
2022/05/29 03:50:14;;;;;;;17.98;2.75;;;;;;;;;;4945664;29;20403;-67
2022/05/29 03:52:42;;;;;;;15.15;2.22;;;;;;;;;;4945913;29;20096;-67
2022/05/29 03:55:09;;;;;;;10.00;1.90;;;;;;;;;;4944730;29;20055;-67
2022/05/29 03:57:37;;;;;;;12.38;2.08;;;;;;;;;;4931883;29;20055;-67
2022/05/29 04:00:04;;;;;;;12.85;2.15;;;;;;;;;;4932854;29;20055;-67
2022/05/29 04:02:31;;;;;;;12.35;1.63;;;;;;;;;;4946765;29;20119;-67
2022/05/29 04:04:59;;;;;;;10.07;1.75;;;;;;;;;;4940802;29;20062;-67
2022/05/29 04:12:56;;;;;;;18.15;2.35;;;;;;;;;;4941499;29;20054;-67
2022/05/29 04:15:23;;;;;;;17.67;2.05;;;;;;;;;;4946853;29;20043;-67
2022/05/29 04:17:51;;;;;;;15.10;2.65;;;;;;;;;;4942011;29;20059;-67
2022/05/29 04:20:18;;;;;;;15.85;2.85;;;;;;;;;;4946595;29;20689;-67
2022/05/29 04:22:47;;;;;;;18.42;3.17;;;;;;;;;;4930602;29;20059;-67
2022/05/29 04:25:14;;;;;;;19.80;2.83;;;;;;;;;;4930851;29;20059;-67
2022/05/29 04:27:42;;;;;;;16.05;2.50;;;;;;;;;;4944645;29;20051;-67
2022/05/29 04:30:09;;;;;;;14.07;2.83;;;;;;;;;;4948060;28;20062;-67
2022/05/29 04:35:21;;;;;;;20.77;2.83;;;;;;;;;;4947158;29;20054;-67
2022/05/29 04:37:50;;;;;;;16.02;3.10;;;;;;;;;;4949464;28;20063;-67
2022/05/29 04:40:17;;;;;;;16.70;2.50;;;;;;;;;;4925074;29;20059;-67
2022/05/29 04:42:44;;;;;;;20.95;2.90;;;;;;;;;;4938463;29;20450;-67
2022/05/29 04:45:11;;;;;;;17.02;3.13;;;;;;;;;;4928982;29;20501;-67
2022/05/29 04:47:39;;;;;;;12.90;2.53;;;;;;;;;;4924924;29;20146;-67
2022/05/29 04:50:07;;;;;;;11.98;1.77;;;;;;;;;;4946532;29;20581;-67
2022/05/29 04:52:34;;;;;;;13.50;2.13;;;;;;;;;;4930029;29;20141;-67
2022/05/29 04:55:03;;;;;;;11.02;2.17;;;;;;;;;;4930673;29;20546;-67
2022/05/29 04:57:30;;;;;;;17.15;2.15;;;;;;;;;;4930655;29;20051;-67
2022/05/29 04:59:58;;;;;;;10.93;1.75;;;;;;;;;;4929733;29;20122;-67
2022/05/29 05:02:25;;;;;;;9.55;1.77;;;;;;;;;;4947293;29;20047;-67
2022/05/29 05:04:53;;;;;;;11.15;1.83;;;;;;;;;;4948185;29;20410;-67
2022/05/29 05:07:20;;;;;;;12.43;1.85;;;;;;;;;;4941919;29;20123;-67
2022/05/29 05:09:48;;;;;;;9.57;1.63;;;;;;;;;;4926073;29;21183;-67
2022/05/29 05:12:16;;;;;;;13.73;1.92;;;;;;;;;;4928715;29;20454;-67
2022/05/29 05:14:44;;;;;;;16.98;2.75;;;;;;;;;;4947261;29;20576;-67
2022/05/29 05:17:11;;;;;;;16.02;2.55;;;;;;;;;;4930786;29;20506;-67
2022/05/29 05:19:38;;;;;;;9.13;2.13;;;;;;;;;;4945283;29;20118;-67
2022/05/29 05:22:08;;;;;;;12.40;2.50;;;;;;;;;;4947952;29;20051;-67
2022/05/29 05:24:37;;;;;;;17.13;2.13;;;;;;;;;;4935656;29;20051;-67
2022/05/29 05:27:05;;;;;;;13.15;2.25;;;;;;;;;;4948897;29;20518;-67
2022/05/29 05:29:34;;;;;;;15.57;2.70;;;;;;;;;;4931448;29;20051;-67
2022/05/29 05:32:01;;;;;;;16.02;2.47;;;;;;;;;;4948520;29;20114;-67
2022/05/29 05:34:28;;;;;;;17.13;2.67;;;;;;;;;;4930081;29;20071;-67
2022/05/29 05:36:56;;;;;;;18.45;2.45;;;;;;;;;;4941520;29;20195;-67
2022/05/29 05:39:24;;;;;;;15.95;2.85;;;;;;;;;;4943058;29;20416;-67
2022/05/29 05:41:51;;;;;;;16.75;2.70;;;;;;;;;;4923836;29;20589;-67
2022/05/29 05:44:18;;;;;;;15.98;2.42;;;;;;;;;;4923747;29;20137;-67
2022/05/29 05:46:47;;;;;;;11.00;2.03;;;;;;;;;;4940499;29;20130;-67
2022/05/29 05:49:17;;;;;;;16.63;2.00;;;;;;;;;;4941334;29;20125;-67
2022/05/29 05:51:44;;;;;;;12.45;1.98;;;;;;;;;;4922621;29;20102;-67
2022/05/29 05:54:12;;;;;;;17.58;2.42;;;;;;;;;;4937690;29;20059;-67
2022/05/29 05:56:42;;;;;;;11.75;2.58;;;;;;;;;;4919049;29;20071;-67
2022/05/29 05:59:09;;;;;;;16.58;3.28;;;;;;;;;;4942189;29;20054;-67
2022/05/29 06:01:36;;;;;;;16.08;5.18;;;;;;;;;;4934959;29;20051;-67
2022/05/29 06:04:05;;;;;;;18.92;5.78;;;;;;;;;;4918310;29;20063;-67
2022/05/29 06:06:32;;;;;;;23.30;7.38;;;;;;;;;;4921196;29;20063;-67
2022/05/29 06:08:59;;;;;;;14.18;2.88;;;;;;;;;;4923197;29;20141;-67
2022/05/29 06:11:27;;;;;;;12.48;2.55;;;;;;;;;;4941939;29;20455;-67
2022/05/29 06:13:54;;;;;;;21.15;2.33;;;;;;;;;;4922917;29;20737;-67
2022/05/29 06:16:22;;;;;;;12.23;2.53;;;;;;;;;;4939600;29;20055;-67
2022/05/29 06:18:49;;;;;;;12.73;1.88;;;;;;;;;;4921239;29;20055;-67
2022/05/29 06:21:18;;;;;;;17.13;2.40;;;;;;;;;;4939726;28;20055;-67
2022/05/29 06:23:45;;;;;;;12.40;1.63;;;;;;;;;;4939568;28;20047;-67
2022/05/29 06:26:13;;;;;;;13.15;2.03;;;;;;;;;;4927683;28;20051;-67
2022/05/29 06:28:41;;;;;;;12.13;2.03;;;;;;;;;;4938395;28;20059;-67
2022/05/29 06:31:09;;;;;;;6.88;1.67;;;;;;;;;;4943341;28;20486;-68
2022/05/29 06:33:36;;;;;;;15.13;2.40;;;;;;;;;;4922984;28;20146;-67
2022/05/29 06:36:08;;;;;;;14.95;2.00;;;;;;;;;;4922496;29;20055;-67
2022/05/29 06:38:36;;;;;;;12.15;1.83;;;;;;;;;;4935775;29;20564;-67
2022/05/29 06:41:05;;;;;;;18.23;3.00;;;;;;;;;;4937495;28;20051;-67
2022/05/29 06:43:33;;;;;;;12.65;2.17;;;;;;;;;;4920047;29;20395;-67
2022/05/29 06:46:00;;;;;;;18.45;2.78;;;;;;;;;;4924143;29;20576;-67
2022/05/29 06:48:27;;;;;;;15.10;2.53;;;;;;;;;;4916533;29;20056;-67
2022/05/29 06:50:54;;;;;;;15.88;2.50;;;;;;;;;;4918891;29;20059;-67
2022/05/29 06:53:22;;;;;;;14.25;2.08;;;;;;;;;;4939694;28;20054;-67
2022/05/29 06:55:54;;;;;;;8.57;1.65;;;;;;;;;;4924568;29;20062;-68
2022/05/29 06:58:21;;;;;;;7.78;1.83;;;;;;;;;;4941559;29;20055;-68
2022/05/29 07:09:04;;;;;;;14.45;2.42;;;;;;;;;;4942621;29;20139;-68
2022/05/29 07:11:35;;;;;;;15.18;2.33;;;;;;;;;;4924429;29;20134;-68
2022/05/29 07:14:04;;;;;;;11.88;1.88;;;;;;;;;;4936797;28;20090;-68
2022/05/29 07:16:31;;;;;;;12.98;2.08;;;;;;;;;;4942033;29;20050;-68
2022/05/29 07:18:58;;;;;;;13.02;2.40;;;;;;;;;;4940655;29;20055;-68
2022/05/29 07:21:26;;;;;;;11.23;2.33;;;;;;;;;;4945841;29;20043;-68
2022/05/29 07:23:53;;;;;;;11.85;1.60;;;;;;;;;;4932964;29;20073;-68
2022/05/29 07:26:21;;;;;;;9.57;1.33;;;;;;;;;;4947494;29;20055;-67
2022/05/29 07:28:50;;;;;;;13.00;1.90;;;;;;;;;;4949565;29;20495;-67
2022/05/29 07:31:17;;;;;;;9.18;1.80;;;;;;;;;;4945281;29;20055;-67
2022/05/29 07:33:44;;;;;;;9.23;1.80;;;;;;;;;;4933714;29;20146;-67
2022/05/29 07:36:12;;;;;;;11.48;1.60;;;;;;;;;;4931159;29;20079;-67
2022/05/29 07:38:39;;;;;;;8.23;1.48;;;;;;;;;;4931024;29;20070;-67
2022/05/29 07:43:49;;;;;;;9.32;1.77;;;;;;;;;;4942433;28;20081;-67
2022/05/29 07:46:16;;;;;;;8.15;1.95;;;;;;;;;;4922969;29;20059;-67
2022/05/29 07:48:44;;;;;;;11.05;1.67;;;;;;;;;;4924366;29;20059;-67
2022/05/29 07:51:11;;;;;;;5.35;1.50;;;;;;;;;;4941089;29;20051;-67
2022/05/29 07:53:38;;;;;;;8.25;1.40;;;;;;;;;;4944505;28;20410;-68
2022/05/29 07:56:07;;;;;;;10.60;1.30;;;;;;;;;;4941768;28;20048;-68
2022/05/29 07:58:34;;;;;;;6.93;1.08;;;;;;;;;;4924705;29;20055;-68
2022/05/29 08:01:03;;;;;;;6.88;1.75;;;;;;;;;;4918417;29;20067;-68
2022/05/29 08:03:30;;;;;;;6.78;1.15;;;;;;;;;;4925941;29;20062;-68
2022/05/29 08:05:58;;;;;;;5.38;1.13;;;;;;;;;;4928099;29;20055;-68
2022/05/29 08:08:26;;;;;;;9.60;1.20;;;;;;;;;;4942100;29;20059;-68
2022/05/29 08:10:53;;;;;;;7.95;1.23;;;;;;;;;;4924291;29;20410;-68
2022/05/29 08:13:21;;;;;;;10.18;1.40;;;;;;;;;;4942594;29;20084;-68
2022/05/29 08:15:48;;;;;;;7.70;1.92;;;;;;;;;;4943133;29;20062;-68
2022/05/29 08:18:17;;;;;;;14.75;2.13;;;;;;;;;;4941630;29;20103;-68
2022/05/29 08:20:44;;;;;;;7.70;1.60;;;;;;;;;;4941277;29;20048;-68
2022/05/29 08:23:11;;;;;;;10.00;1.70;;;;;;;;;;4924824;29;20502;-68
2022/05/29 08:31:08;;;;;;;12.80;1.80;;;;;;;;;;4946642;28;20399;-68
2022/05/29 08:33:37;;;;;;;17.20;2.08;;;;;;;;;;4938649;29;20105;-68
2022/05/29 08:36:06;;;;;;;13.55;2.20;;;;;;;;;;4938522;29;20056;-68
2022/05/29 08:38:34;;;;;;;14.43;1.88;;;;;;;;;;4943950;29;20080;-68
2022/05/29 08:41:02;;;;;;;10.60;1.83;;;;;;;;;;4941363;29;20055;-68
2022/05/29 08:43:34;;;;;;;13.77;1.80;;;;;;;;;;4943009;29;20384;-68
2022/05/29 08:46:04;;;;;;;14.07;2.28;;;;;;;;;;4930930;29;20055;-68
2022/05/29 08:48:31;;;;;;;11.52;2.17;;;;;;;;;;4941971;29;20059;-68
2022/05/29 08:51:23;;;;;;;9.93;1.58;;;;;;;;;;4927620;29;20054;-68
2022/05/29 08:53:54;;;;;;;11.88;1.40;;;;;;;;;;4917848;29;20051;-68
2022/05/29 08:56:26;;;;;;;10.90;1.40;;;;;;;;;;4921118;29;20055;-68
2022/05/29 08:59:03;;;;;;;13.45;1.63;;;;;;;;;;4946097;29;20491;-68
2022/05/29 09:01:36;;;;;;;7.05;1.20;;;;;;;;;;4945734;29;20758;-68
2022/05/29 09:04:05;;;;;;;7.93;1.37;;;;;;;;;;4941965;29;20051;-68
2022/05/29 09:06:35;;;;;;;9.23;1.40;;;;;;;;;;4941658;29;20114;-68
2022/05/29 09:09:07;;;;;;;8.82;1.40;;;;;;;;;;4939222;29;20047;-68
2022/05/29 09:11:35;;;;;;;9.93;1.98;;;;;;;;;;4924698;29;20094;-68
2022/05/29 09:14:09;;;;;;;9.60;1.38;;;;;;;;;;4921517;29;20062;-68
2022/05/29 09:16:45;;;;;;;9.25;1.58;;;;;;;;;;4944130;29;20066;-68
2022/05/29 09:19:16;;;;;;;6.40;1.30;;;;;;;;;;4944451;29;20506;-68
2022/05/29 09:21:49;;;;;;;10.05;1.55;;;;;;;;;;4930460;29;20058;-68
2022/05/29 09:24:24;;;;;;;11.57;1.70;;;;;;;;;;4922325;29;20139;-68
2022/05/29 09:26:51;;;;;;;13.75;1.52;;;;;;;;;;4940664;29;20329;-68
2022/05/29 09:29:18;;;;;;;12.05;1.90;;;;;;;;;;4923848;29;20121;-68
2022/05/29 09:31:45;;;;;;;12.57;1.70;;;;;;;;;;4928177;29;20126;-68
2022/05/29 09:34:12;;;;;;;19.70;2.25;;;;;;;;;;4944708;29;20110;-68
2022/05/29 09:36:50;;;;;;;15.43;2.65;;;;;;;;;;4944996;29;20090;-68
2022/05/29 09:39:23;;;;;;;16.42;2.15;;;;;;;;;;4928529;29;20463;-68
2022/05/29 09:41:52;;;;;;;11.60;1.80;;;;;;;;;;4945239;29;20518;-68
2022/05/29 09:44:20;;;;;;;11.65;2.03;;;;;;;;;;4944639;29;20066;-68
2022/05/29 09:46:48;;;;;;;10.57;1.45;;;;;;;;;;4927819;29;20059;-68
2022/05/29 09:52:09;;;;;;;6.75;1.05;;;;;;;;;;4939865;28;20051;-68
2022/05/29 09:54:39;;;;;;;8.20;1.10;;;;;;;;;;4945802;28;20055;-68
2022/05/29 09:57:07;;;;;;;6.70;1.00;;;;;;;;;;4944725;29;20455;-68
2022/05/29 09:59:37;;;;;;;5.35;0.90;;;;;;;;;;4941770;29;20059;-68
2022/05/29 10:02:05;;;;;;;8.02;1.27;;;;;;;;;;4943719;29;20074;-68
2022/05/29 10:04:35;;;;;;;4.65;1.00;;;;;;;;;;4946556;29;20467;-68
2022/05/29 10:07:12;;;;;;;5.07;0.90;;;;;;;;;;4943714;29;20067;-68
2022/05/29 10:09:54;;;;;;;8.68;0.95;;;;;;;;;;4928582;29;20130;-68
2022/05/29 10:12:25;;;;;;;10.77;1.52;;;;;;;;;;4943886;29;20051;-68
2022/05/29 10:14:52;;;;;;;7.05;1.20;;;;;;;;;;4928263;29;20118;-68
2022/05/29 10:17:35;;;;;;;14.40;1.85;;;;;;;;;;4947014;29;20055;-68
2022/05/29 10:20:02;;;;;;;9.43;1.20;;;;;;;;;;4940713;29;20055;-68
2022/05/29 10:22:32;;;;;;;10.85;1.20;;;;;;;;;;4947052;29;20054;-68
2022/05/29 10:25:00;;;;;;;9.00;1.90;;;;;;;;;;4944109;29;20090;-68
2022/05/29 10:27:31;;;;;;;9.35;1.30;;;;;;;;;;4927142;29;20059;-68
2022/05/29 10:29:59;;;;;;;6.60;1.38;;;;;;;;;;4934184;29;20788;-68
2022/05/29 10:32:28;;;;;;;7.70;1.30;;;;;;;;;;4933561;28;20070;-68
2022/05/29 10:35:06;;;;;;;9.18;1.25;;;;;;;;;;4930507;29;20055;-68
2022/05/29 10:37:38;;;;;;;7.05;1.58;;;;;;;;;;4930516;29;20055;-68
2022/05/29 10:40:16;;;;;;;12.30;1.08;;;;;;;;;;4933887;29;20413;-68
2022/05/29 10:42:46;;;;;;;9.63;1.60;;;;;;;;;;4950615;29;20450;-68
2022/05/29 10:45:21;;;;;;;11.32;1.52;;;;;;;;;;4929020;29;20114;-68
2022/05/29 10:47:56;;;;;;;6.35;1.50;;;;;;;;;;4949076;29;20058;-68
2022/05/29 10:50:27;;;;;;;10.73;1.45;;;;;;;;;;4930217;29;20047;-68
2022/05/29 10:53:02;;;;;;;12.52;1.77;;;;;;;;;;4931748;29;20062;-68
2022/05/29 10:55:42;;;;;;;12.80;1.80;;;;;;;;;;4945672;29;20129;-68
2022/05/29 10:58:23;;;;;;;13.50;1.63;;;;;;;;;;4925466;29;20601;-68
2022/05/29 11:00:56;;;;;;;14.38;2.28;;;;;;;;;;4949449;29;20047;-68
2022/05/29 11:03:22;;;;;;;;;;;;;;;;;;4929233;29;20055;-68
2022/05/29 11:06:00;;;;;;;11.48;1.88;;;;;;;;;;4928999;29;19926;-69
2022/05/29 11:08:32;;;;;;;9.77;1.67;;;;;;;;;;4942847;29;20106;-69
2022/05/29 11:11:04;;;;;;;13.43;1.90;;;;;;;;;;4922669;29;20054;-69
2022/05/29 11:13:49;;;;;;;12.07;1.73;;;;;;;;;;4939382;28;20055;-69
2022/05/29 11:16:21;;;;;;;17.48;3.80;;;;;;;;;;4945825;28;20054;-69
2022/05/29 11:19:03;;;;;;;9.63;1.80;;;;;;;;;;4931109;29;20067;-69
2022/05/29 11:21:39;;;;;;;9.40;1.50;;;;;;;;;;4946884;29;20569;-69
2022/05/29 11:24:23;;;;;;;12.93;1.83;;;;;;;;;;4931307;29;20502;-68
2022/05/29 11:26:55;;;;;;;10.80;1.67;;;;;;;;;;4932374;29;20106;-68
2022/05/29 11:29:33;;;;;;;10.88;1.60;;;;;;;;;;4926115;28;20052;-68
2022/05/29 11:32:04;;;;;;;12.07;1.90;;;;;;;;;;4930882;28;20054;-68
2022/05/29 11:34:34;;;;;;;11.05;1.95;;;;;;;;;;4930972;29;20066;-68
2022/05/29 11:37:24;;;;;;;14.18;2.25;;;;;;;;;;4927901;29;20055;-68
2022/05/29 11:39:55;;;;;;;10.43;1.70;;;;;;;;;;4946879;29;20051;-68
2022/05/29 11:42:24;;;;;;;8.23;1.75;;;;;;;;;;4930052;29;20048;-68
2022/05/29 11:44:55;;;;;;;9.27;2.13;;;;;;;;;;4946405;28;20937;-68
2022/05/29 11:53:02;;;;;;;10.98;1.70;;;;;;;;;;4945416;29;20114;-68
2022/05/29 11:55:31;;;;;;;6.97;1.60;;;;;;;;;;4928895;29;20182;-68
2022/05/29 11:58:00;;;;;;;8.90;1.80;;;;;;;;;;4947286;28;20059;-68
2022/05/29 12:00:33;;;;;;;8.82;1.65;;;;;;;;;;4929749;29;20110;-68
2022/05/29 12:03:05;;;;;;;9.05;1.98;;;;;;;;;;4931627;29;20073;-68
2022/05/29 12:05:35;;;;;;;8.27;1.60;;;;;;;;;;4928234;28;20058;-68
2022/05/29 12:08:05;;;;;;;9.23;1.48;;;;;;;;;;4947743;29;20047;-68
2022/05/29 12:10:36;;;;;;;6.13;1.58;;;;;;;;;;4922764;29;20092;-68
2022/05/29 12:13:09;;;;;;;9.40;1.20;;;;;;;;;;4924894;29;20149;-69
2022/05/29 12:15:36;;;;;;;;;;;;;;;;;;4941307;28;20058;-69
2022/05/29 12:18:07;;;;;;;8.82;1.67;;;;;;;;;;4923558;29;19926;-69
2022/05/29 12:20:39;;;;;;;7.88;1.70;;;;;;;;;;4940527;28;20090;-69
2022/05/29 12:23:08;;;;;;;8.43;1.70;;;;;;;;;;4938240;29;20398;-69
2022/05/29 12:25:37;;;;;;;11.77;2.08;;;;;;;;;;4921527;29;20051;-68
2022/05/29 12:28:08;;;;;;;10.20;1.60;;;;;;;;;;4921235;29;20164;-68
2022/05/29 12:30:37;;;;;;;12.15;2.03;;;;;;;;;;4919957;28;20051;-68
2022/05/29 12:33:12;;;;;;;11.20;2.13;;;;;;;;;;4918441;28;20064;-69
2022/05/29 12:35:41;;;;;;;12.65;2.00;;;;;;;;;;4937118;28;20569;-69
2022/05/29 12:38:23;;;;;;;11.23;1.92;;;;;;;;;;4916935;29;20062;-68
2022/05/29 12:41:11;;;;;;;7.55;1.40;;;;;;;;;;4934313;28;20106;-68
2022/05/29 12:44:06;;;;;;;12.45;1.67;;;;;;;;;;4911410;28;20063;-68
2022/05/29 12:46:43;;;;;;;14.90;2.00;;;;;;;;;;4935992;28;20058;-68
2022/05/29 12:49:35;;;;;;;11.38;1.80;;;;;;;;;;4919835;28;20525;-68
2022/05/29 12:52:19;;;;;;;9.95;1.65;;;;;;;;;;4894337;28;20063;-68
2022/05/29 12:55:05;;;;;;;9.70;1.85;;;;;;;;;;4919506;28;20121;-68
2022/05/29 12:57:48;;;;;;;13.00;2.13;;;;;;;;;;4936182;28;20391;-68
2022/05/29 13:00:34;;;;;;;13.67;2.20;;;;;;;;;;4920262;29;20058;-68
2022/05/29 13:03:13;;;;;;;13.32;1.80;;;;;;;;;;4919978;29;20058;-68
2022/05/29 13:05:51;;;;;;;16.63;1.90;;;;;;;;;;4917450;29;20071;-68
2022/05/29 13:08:48;;;;;;;7.80;1.73;;;;;;;;;;4920122;28;20059;-68
2022/05/29 13:11:30;;;;;;;19.23;2.38;;;;;;;;;;4858758;29;20053;-68
2022/05/29 13:13:59;;;;;;;13.82;1.83;;;;;;;;;;4909363;28;20182;-68
2022/05/29 13:16:29;;;;;;;8.20;1.88;;;;;;;;;;4935489;28;20055;-68
2022/05/29 13:21:55;;;;;;;11.43;2.28;;;;;;;;;;4913018;28;20565;-68
2022/05/29 13:24:23;;;;;;;15.82;2.50;;;;;;;;;;4915640;28;20062;-68
2022/05/29 13:27:05;;;;;;;11.23;2.15;;;;;;;;;;4936738;28;20081;-68
2022/05/29 13:29:40;;;;;;;11.48;1.88;;;;;;;;;;4915922;28;20156;-68
2022/05/29 13:32:18;;;;;;;12.52;2.70;;;;;;;;;;4919189;28;20616;-68
2022/05/29 13:34:46;;;;;;;11.23;2.10;;;;;;;;;;4934122;28;20058;-68
2022/05/29 13:37:23;;;;;;;11.00;2.13;;;;;;;;;;4938420;28;20464;-68
2022/05/29 13:39:56;;;;;;;15.02;3.10;;;;;;;;;;4937813;28;20103;-68
2022/05/29 13:42:25;;;;;;;10.30;1.83;;;;;;;;;;4934578;28;20143;-68
2022/05/29 13:44:53;;;;;;;10.63;2.10;;;;;;;;;;4921242;29;20047;-68
2022/05/29 13:47:31;;;;;;;8.48;2.03;;;;;;;;;;4931243;28;20059;-68
2022/05/29 13:49:59;;;;;;;9.85;2.40;;;;;;;;;;4933906;28;20058;-68
2022/05/29 13:52:29;;;;;;;13.50;2.20;;;;;;;;;;4938795;28;21660;-68
2022/05/29 13:55:00;;;;;;;11.77;1.75;;;;;;;;;;4941516;28;20047;-68
2022/05/29 14:05:46;;;;;;;9.30;1.95;;;;;;;;;;4895274;29;20105;-69
2022/05/29 14:08:31;;;;;;;11.02;2.03;;;;;;;;;;4948959;28;20090;-69
2022/05/29 14:11:08;;;;;;;11.93;2.30;;;;;;;;;;4923619;28;20062;-69
2022/05/29 14:13:36;;;;;;;8.02;1.60;;;;;;;;;;4925210;28;20059;-69
2022/05/29 14:16:11;;;;;;;12.07;2.00;;;;;;;;;;4940526;28;20052;-69
2022/05/29 14:18:42;;;;;;;12.68;2.08;;;;;;;;;;4928143;28;20139;-69
2022/05/29 14:21:28;;;;;;;9.63;2.00;;;;;;;;;;4943394;28;20043;-69
2022/05/29 14:24:06;;;;;;;12.18;2.17;;;;;;;;;;4944451;28;20051;-69
2022/05/29 14:26:45;;;;;;;7.07;1.80;;;;;;;;;;4922919;28;20982;-69
2022/05/29 14:29:26;;;;;;;12.75;2.47;;;;;;;;;;4942495;28;20162;-69
2022/05/29 14:31:59;;;;;;;11.95;2.33;;;;;;;;;;4943521;28;20110;-69
2022/05/29 14:34:42;;;;;;;12.40;2.72;;;;;;;;;;4926313;28;20058;-69
2022/05/29 14:37:25;;;;;;;14.30;2.50;;;;;;;;;;4941328;28;20055;-68
2022/05/29 14:39:56;;;;;;;14.25;2.17;;;;;;;;;;4943407;28;20068;-68
2022/05/29 14:42:26;;;;;;;11.52;3.13;;;;;;;;;;4924765;28;20070;-68
2022/05/29 14:44:55;;;;;;;12.95;2.63;;;;;;;;;;4941371;28;20055;-68
2022/05/29 14:47:26;;;;;;;14.68;2.58;;;;;;;;;;4925534;28;20055;-68
2022/05/29 14:50:01;;;;;;;15.02;2.40;;;;;;;;;;4925039;28;20051;-68
2022/05/29 14:52:33;;;;;;;15.45;2.50;;;;;;;;;;4921687;29;20059;-68
2022/05/29 14:55:08;;;;;;;15.18;2.40;;;;;;;;;;4925548;28;20047;-68
2022/05/29 14:57:35;;;;;;;12.00;2.03;;;;;;;;;;4938991;28;20047;-68
2022/05/29 15:00:02;;;;;;;17.85;2.72;;;;;;;;;;4942738;28;20055;-68
2022/05/29 15:02:33;;;;;;;14.40;2.28;;;;;;;;;;4922290;29;20104;-68
2022/05/29 15:05:02;;;;;;;12.10;2.97;;;;;;;;;;4926533;28;20055;-68
2022/05/29 15:10:33;;;;;;;14.98;2.85;;;;;;;;;;4943664;28;20387;-68
2022/05/29 15:13:06;;;;;;;14.23;3.00;;;;;;;;;;4939514;28;20055;-68
2022/05/29 15:15:37;;;;;;;12.45;2.92;;;;;;;;;;4927022;28;20419;-68
2022/05/29 15:18:10;;;;;;;11.80;2.33;;;;;;;;;;4923391;28;20086;-68
2022/05/29 15:26:14;;;;;;;14.50;2.75;;;;;;;;;;4925292;29;21644;-68
2022/05/29 15:28:44;;;;;;;12.27;2.60;;;;;;;;;;4923096;29;20054;-68
2022/05/29 15:31:13;;;;;;;15.07;2.50;;;;;;;;;;4924798;29;20039;-69
2022/05/29 15:33:46;;;;;;;13.45;2.10;;;;;;;;;;4923872;29;20054;-69
2022/05/29 15:36:14;;;;;;;17.17;2.75;;;;;;;;;;4943257;29;21173;-69
2022/05/29 15:38:45;;;;;;;13.82;2.50;;;;;;;;;;4947719;29;20047;-69
2022/05/29 15:41:18;;;;;;;10.55;2.53;;;;;;;;;;4949600;29;20588;-69
2022/05/29 15:43:53;;;;;;;15.25;2.33;;;;;;;;;;4944598;29;20506;-69
2022/05/29 15:46:53;;;;;;;13.43;2.20;;;;;;;;;;4926856;29;20063;-68
2022/05/29 15:49:35;;;;;;;12.38;2.30;;;;;;;;;;4834181;29;20085;-68
2022/05/29 15:52:05;;;;;;;13.45;2.53;;;;;;;;;;4848144;29;20064;-68